createdAt,value
2023-05-21T00:00:02.789Z,17.00
2023-05-21T00:01:02.933Z,17.00
2023-05-21T00:02:03.072Z,17.00
2023-05-21T00:03:02.307Z,17.00
2023-05-21T00:04:02.752Z,17.00
2023-05-21T00:05:02.775Z,14.40
2023-05-21T00:06:02.838Z,14.40
2023-05-21T00:07:02.734Z,14.40
2023-05-21T00:08:01.857Z,14.40
2023-05-21T00:09:02.109Z,14.40
2023-05-21T00:10:02.324Z,16.80
2023-05-21T00:11:02.305Z,16.80
2023-05-21T00:12:01.733Z,16.80
2023-05-21T00:13:01.889Z,16.80
2023-05-21T00:14:02.009Z,16.80
2023-05-21T00:15:02.390Z,13.80
2023-05-21T00:16:02.295Z,13.80
2023-05-21T00:17:02.326Z,13.80
2023-05-21T00:18:02.131Z,13.80
2023-05-21T00:19:02.391Z,13.80
2023-05-21T00:20:02.607Z,13.50
2023-05-21T00:21:02.509Z,13.50
2023-05-21T00:22:02.374Z,13.50
2023-05-21T00:23:02.453Z,13.50
2023-05-21T00:24:02.651Z,13.50
2023-05-21T00:25:02.951Z,14.30
2023-05-21T00:26:02.806Z,14.30
2023-05-21T00:27:02.468Z,14.30
2023-05-21T00:28:01.703Z,14.30
2023-05-21T00:29:01.909Z,14.30
2023-05-21T00:30:01.701Z,14.50
2023-05-21T00:31:01.935Z,14.50
2023-05-21T00:32:02.190Z,14.50
2023-05-21T00:33:02.237Z,14.50
2023-05-21T00:34:02.087Z,14.50
2023-05-21T00:35:02.259Z,16.30
2023-05-21T00:36:02.351Z,16.30
2023-05-21T00:37:02.518Z,16.30
2023-05-21T00:38:02.649Z,16.30
2023-05-21T00:39:03.081Z,16.30
2023-05-21T00:40:02.984Z,11.90
2023-05-21T00:41:02.777Z,11.90
2023-05-21T00:42:02.518Z,11.90
2023-05-21T00:43:02.636Z,11.90
2023-05-21T00:44:02.543Z,11.90
2023-05-21T00:45:02.681Z,11.70
2023-05-21T00:46:02.885Z,11.70
2023-05-21T00:47:03.094Z,11.70
2023-05-21T00:48:02.440Z,11.70
2023-05-21T00:49:02.405Z,11.70
2023-05-21T00:50:02.540Z,13.30
2023-05-21T00:51:02.601Z,13.30
2023-05-21T00:52:02.077Z,13.30
2023-05-21T00:53:02.305Z,13.30
2023-05-21T00:54:02.547Z,13.30
2023-05-21T00:55:02.428Z,17.20
2023-05-21T00:56:02.517Z,17.20
2023-05-21T00:57:02.654Z,17.20
2023-05-21T00:58:02.632Z,17.20
2023-05-21T00:59:02.582Z,17.20
2023-05-21T01:00:02.786Z,14.90
2023-05-21T01:01:02.809Z,14.90
2023-05-21T01:02:02.863Z,14.90
2023-05-21T01:03:02.101Z,14.90
2023-05-21T01:04:01.845Z,14.90
2023-05-21T01:05:02.138Z,16.30
2023-05-21T01:06:02.048Z,16.30
2023-05-21T01:07:02.430Z,16.30
2023-05-21T01:08:02.578Z,16.30
2023-05-21T01:09:03.914Z,16.30
2023-05-21T01:10:02.243Z,15.70
2023-05-21T01:11:02.096Z,15.70
2023-05-21T01:12:02.360Z,15.70
2023-05-21T01:13:02.309Z,15.70
2023-05-21T01:14:02.322Z,15.70
2023-05-21T01:15:02.512Z,15.10
2023-05-21T01:16:02.722Z,15.10
2023-05-21T01:17:02.608Z,15.10
2023-05-21T01:18:02.811Z,15.10
2023-05-21T01:19:03.009Z,15.10
2023-05-21T01:20:02.511Z,17.90
2023-05-21T01:21:02.744Z,17.90
2023-05-21T01:22:02.748Z,17.90
2023-05-21T01:23:02.110Z,17.90
2023-05-21T01:24:02.288Z,17.90
2023-05-21T01:25:02.212Z,13.60
2023-05-21T01:26:02.361Z,13.60
2023-05-21T01:27:02.232Z,13.60
2023-05-21T01:28:02.289Z,13.60
2023-05-21T01:29:02.499Z,13.60
2023-05-21T01:30:02.138Z,15.10
2023-05-21T01:31:02.251Z,15.10
2023-05-21T01:32:02.565Z,15.10
2023-05-21T01:33:02.312Z,15.10
2023-05-21T01:34:02.499Z,15.10
2023-05-21T01:35:02.281Z,14.70
2023-05-21T01:36:02.419Z,14.70
2023-05-21T01:37:02.526Z,14.70
2023-05-21T01:38:02.680Z,14.70
2023-05-21T01:39:02.558Z,14.70
2023-05-21T01:40:02.175Z,16.60
2023-05-21T01:41:02.532Z,16.60
2023-05-21T01:42:02.602Z,16.60
2023-05-21T01:43:02.714Z,16.60
2023-05-21T01:44:02.857Z,16.60
2023-05-21T01:45:03.020Z,14.70
2023-05-21T01:46:02.830Z,14.70
2023-05-21T01:47:03.060Z,14.70
2023-05-21T01:48:02.426Z,14.70
2023-05-21T01:49:02.410Z,14.70
2023-05-21T01:50:02.514Z,16.30
2023-05-21T01:51:02.054Z,16.30
2023-05-21T01:52:02.169Z,16.30
2023-05-21T01:53:02.205Z,16.30
2023-05-21T01:54:02.614Z,16.30
2023-05-21T01:55:02.761Z,13.80
2023-05-21T01:56:02.594Z,13.80
2023-05-21T01:57:02.409Z,13.80
2023-05-21T01:58:02.785Z,13.80
2023-05-21T01:59:02.573Z,13.80
2023-05-21T02:00:02.731Z,15.80
2023-05-21T02:01:02.746Z,15.80
2023-05-21T02:02:02.597Z,15.80
2023-05-21T02:03:02.951Z,15.80
2023-05-21T02:04:02.991Z,15.80
2023-05-21T02:05:03.018Z,14.70
2023-05-21T02:06:02.668Z,14.70
2023-05-21T02:07:02.583Z,14.70
2023-05-21T02:08:02.488Z,14.70
2023-05-21T02:09:02.286Z,14.70
2023-05-21T02:10:02.162Z,17.00
2023-05-21T02:11:02.443Z,17.00
2023-05-21T02:12:02.294Z,17.00
2023-05-21T02:13:02.539Z,17.00
2023-05-21T02:14:02.687Z,17.00
2023-05-21T02:15:02.616Z,14.10
2023-05-21T02:16:02.778Z,14.10
2023-05-21T02:17:02.814Z,14.10
2023-05-21T02:18:02.467Z,14.10
2023-05-21T02:19:02.953Z,14.10
2023-05-21T02:20:02.708Z,13.80
2023-05-21T02:21:02.314Z,13.80
2023-05-21T02:22:02.638Z,13.80
2023-05-21T02:23:02.754Z,13.80
2023-05-21T02:24:02.651Z,13.80
2023-05-21T02:25:02.624Z,15.10
2023-05-21T02:26:03.036Z,15.10
2023-05-21T02:27:02.923Z,15.10
2023-05-21T02:28:02.060Z,15.10
2023-05-21T02:29:02.038Z,15.10
2023-05-21T02:30:02.213Z,17.00
2023-05-21T02:31:01.995Z,17.00
2023-05-21T02:32:01.957Z,17.00
2023-05-21T02:33:02.928Z,17.00
2023-05-21T02:34:02.933Z,17.00
2023-05-21T02:35:02.827Z,15.70
2023-05-21T02:36:02.379Z,15.70
2023-05-21T02:37:02.458Z,15.70
2023-05-21T02:38:02.348Z,15.70
2023-05-21T02:39:01.861Z,15.70
2023-05-21T02:40:02.714Z,17.70
2023-05-21T02:41:02.406Z,17.70
2023-05-21T02:42:02.134Z,17.70
2023-05-21T02:43:02.888Z,17.70
2023-05-21T02:44:02.855Z,17.70
2023-05-21T02:45:02.908Z,15.50
2023-05-21T02:46:02.438Z,15.50
2023-05-21T02:47:02.459Z,15.50
2023-05-21T02:48:02.269Z,15.50
2023-05-21T02:49:01.674Z,15.50
2023-05-21T02:50:02.110Z,15.60
2023-05-21T02:51:02.220Z,15.60
2023-05-21T02:52:01.858Z,15.60
2023-05-21T02:53:02.708Z,15.60
2023-05-21T02:54:02.249Z,15.60
2023-05-21T02:55:02.389Z,14.70
2023-05-21T02:56:02.780Z,14.70
2023-05-21T02:57:02.667Z,14.70
2023-05-21T02:58:02.464Z,14.70
2023-05-21T02:59:02.470Z,14.70
2023-05-21T03:00:02.310Z,16.50
2023-05-21T03:01:02.628Z,16.50
2023-05-21T03:02:01.898Z,16.50
2023-05-21T03:03:02.100Z,16.50
2023-05-21T03:04:02.704Z,16.50
2023-05-21T03:05:02.173Z,16.50
2023-05-21T03:06:02.278Z,16.50
2023-05-21T03:07:02.457Z,16.50
2023-05-21T03:08:02.746Z,16.50
2023-05-21T03:09:02.924Z,16.50
2023-05-21T03:10:03.021Z,15.60
2023-05-21T03:11:03.117Z,15.60
2023-05-21T03:12:03.291Z,15.60
2023-05-21T03:13:02.954Z,15.60
2023-05-21T03:14:02.517Z,15.60
2023-05-21T03:15:02.707Z,15.40
2023-05-21T03:16:02.833Z,15.40
2023-05-21T03:17:02.790Z,15.40
2023-05-21T03:18:02.706Z,15.40
2023-05-21T03:19:02.760Z,15.40
2023-05-21T03:20:02.998Z,16.60
2023-05-21T03:21:02.747Z,16.60
2023-05-21T03:22:02.990Z,16.60
2023-05-21T03:23:02.960Z,16.60
2023-05-21T03:24:03.037Z,16.60
2023-05-21T03:25:03.166Z,14.50
2023-05-21T03:26:02.987Z,14.50
2023-05-21T03:27:03.102Z,14.50
2023-05-21T03:28:02.307Z,14.50
2023-05-21T03:29:02.761Z,14.50
2023-05-21T03:30:03.887Z,14.80
2023-05-21T03:31:02.827Z,14.80
2023-05-21T03:32:02.414Z,14.80
2023-05-21T03:33:02.582Z,14.80
2023-05-21T03:34:02.822Z,14.80
2023-05-21T03:35:02.879Z,19.00
2023-05-21T03:36:03.076Z,19.00
2023-05-21T03:37:03.213Z,19.00
2023-05-21T03:38:03.133Z,19.00
2023-05-21T03:39:02.839Z,19.00
2023-05-21T03:40:02.866Z,16.90
2023-05-21T03:41:03.197Z,16.90
2023-05-21T03:42:02.850Z,16.90
2023-05-21T03:43:02.943Z,16.90
2023-05-21T03:44:03.180Z,16.90
2023-05-21T03:45:03.421Z,16.60
2023-05-21T03:46:03.327Z,16.60
2023-05-21T03:47:03.621Z,16.60
2023-05-21T03:48:02.723Z,16.60
2023-05-21T03:49:02.897Z,16.60
2023-05-21T03:50:02.982Z,18.60
2023-05-21T03:51:02.796Z,18.60
2023-05-21T03:52:02.995Z,18.60
2023-05-21T03:53:02.465Z,18.60
2023-05-21T03:54:02.735Z,18.60
2023-05-21T03:55:02.668Z,16.80
2023-05-21T03:56:02.233Z,16.80
2023-05-21T03:57:02.539Z,16.80
2023-05-21T03:58:03.464Z,16.80
2023-05-21T03:59:02.818Z,16.80
2023-05-21T04:00:03.077Z,16.30
2023-05-21T04:01:03.125Z,16.30
2023-05-21T04:02:03.074Z,16.30
2023-05-21T04:03:03.079Z,16.30
2023-05-21T04:04:02.815Z,16.30
2023-05-21T04:05:02.919Z,17.40
2023-05-21T04:06:03.033Z,17.40
2023-05-21T04:07:03.254Z,17.40
2023-05-21T04:08:02.129Z,17.40
2023-05-21T04:09:01.970Z,17.40
2023-05-21T04:10:02.230Z,16.00
2023-05-21T04:11:02.745Z,16.00
2023-05-21T04:12:02.445Z,16.00
2023-05-21T04:13:02.660Z,16.00
2023-05-21T04:14:02.433Z,16.00
2023-05-21T04:15:02.692Z,18.50
2023-05-21T04:16:02.544Z,18.50
2023-05-21T04:17:02.811Z,18.50
2023-05-21T04:18:01.967Z,18.50
2023-05-21T04:19:02.399Z,18.50
2023-05-21T04:20:02.423Z,17.70
2023-05-21T04:21:02.103Z,17.70
2023-05-21T04:22:02.292Z,17.70
2023-05-21T04:23:02.823Z,17.70
2023-05-21T04:24:02.852Z,17.70
2023-05-21T04:25:02.921Z,15.80
2023-05-21T04:26:02.313Z,15.80
2023-05-21T04:27:02.360Z,15.80
2023-05-21T04:28:02.682Z,15.80
2023-05-21T04:29:02.660Z,15.80
2023-05-21T04:30:02.918Z,19.90
2023-05-21T04:31:02.952Z,19.90
2023-05-21T04:32:03.034Z,19.90
2023-05-21T04:33:02.969Z,19.90
2023-05-21T04:34:03.335Z,19.90
2023-05-21T04:35:03.307Z,16.10
2023-05-21T04:36:02.869Z,16.10
2023-05-21T04:37:03.208Z,16.10
2023-05-21T04:38:04.265Z,16.10
2023-05-21T04:39:02.755Z,16.10
2023-05-21T04:40:02.800Z,18.40
2023-05-21T04:41:02.823Z,18.40
2023-05-21T04:42:02.310Z,18.40
2023-05-21T04:43:02.482Z,18.40
2023-05-21T04:44:02.236Z,18.40
2023-05-21T04:45:02.413Z,16.70
2023-05-21T04:46:02.751Z,16.70
2023-05-21T04:47:02.709Z,16.70
2023-05-21T04:48:02.854Z,16.70
2023-05-21T04:49:02.922Z,16.70
2023-05-21T04:50:03.041Z,17.30
2023-05-21T04:51:02.728Z,17.30
2023-05-21T04:52:03.034Z,17.30
2023-05-21T04:53:02.330Z,17.30
2023-05-21T04:54:02.598Z,17.30
2023-05-21T04:55:02.584Z,16.50
2023-05-21T04:56:02.606Z,16.50
2023-05-21T04:57:01.955Z,16.50
2023-05-21T04:58:02.638Z,16.50
2023-05-21T04:59:05.181Z,16.50
2023-05-21T05:00:03.075Z,16.60
2023-05-21T05:01:03.228Z,16.60
2023-05-21T05:02:02.665Z,16.60
2023-05-21T05:03:03.030Z,16.60
2023-05-21T05:04:03.202Z,16.60
2023-05-21T05:05:02.745Z,18.60
2023-05-21T05:06:03.144Z,18.60
2023-05-21T05:07:02.616Z,18.60
2023-05-21T05:08:03.352Z,18.60
2023-05-21T05:09:03.558Z,18.60
2023-05-21T05:10:03.567Z,16.60
2023-05-21T05:11:03.998Z,16.60
2023-05-21T05:12:03.348Z,16.60
2023-05-21T05:13:03.642Z,16.60
2023-05-21T05:14:03.945Z,16.60
2023-05-21T05:15:03.663Z,22.60
2023-05-21T05:16:03.439Z,22.60
2023-05-21T05:17:03.797Z,22.60
2023-05-21T05:18:02.885Z,22.60
2023-05-21T05:19:02.602Z,22.60
2023-05-21T05:20:02.830Z,20.60
2023-05-21T05:21:02.966Z,20.60
2023-05-21T05:22:02.406Z,20.60
2023-05-21T05:23:03.450Z,20.60
2023-05-21T05:24:03.410Z,20.60
2023-05-21T05:25:03.316Z,17.40
2023-05-21T05:26:03.271Z,17.40
2023-05-21T05:27:03.595Z,17.40
2023-05-21T05:28:03.614Z,17.40
2023-05-21T05:29:03.258Z,17.40
2023-05-21T05:30:03.396Z,18.10
2023-05-21T05:31:03.651Z,18.10
2023-05-21T05:32:03.261Z,18.10
2023-05-21T05:33:03.343Z,18.10
2023-05-21T05:34:02.984Z,18.10
2023-05-21T05:35:03.306Z,20.10
2023-05-21T05:36:02.938Z,20.10
2023-05-21T05:37:02.961Z,20.10
2023-05-21T05:38:03.318Z,20.10
2023-05-21T05:39:03.493Z,20.10
2023-05-21T05:40:03.195Z,19.90
2023-05-21T05:41:02.874Z,19.90
2023-05-21T05:42:03.258Z,19.90
2023-05-21T05:43:03.857Z,19.90
2023-05-21T05:44:03.495Z,19.90
2023-05-21T05:45:03.755Z,19.50
2023-05-21T05:46:03.414Z,19.50
2023-05-21T05:47:03.392Z,19.50
2023-05-21T05:48:03.543Z,19.50
2023-05-21T05:49:03.162Z,19.50
2023-05-21T05:50:03.083Z,20.10
2023-05-21T05:51:03.245Z,20.10
2023-05-21T05:52:03.425Z,20.10
2023-05-21T05:53:03.049Z,20.10
2023-05-21T05:54:02.758Z,20.10
2023-05-21T05:55:03.103Z,19.70
2023-05-21T05:56:02.768Z,19.70
2023-05-21T05:57:03.051Z,19.70
2023-05-21T05:58:03.179Z,19.70
2023-05-21T05:59:03.206Z,19.70
2023-05-21T06:00:02.605Z,20.90
2023-05-21T06:01:02.950Z,20.90
2023-05-21T06:02:02.968Z,20.90
2023-05-21T06:03:03.422Z,20.90
2023-05-21T06:04:02.788Z,20.90
2023-05-21T06:05:03.192Z,20.50
2023-05-21T06:06:02.826Z,20.50
2023-05-21T06:07:03.126Z,20.50
2023-05-21T06:08:03.933Z,20.50
2023-05-21T06:09:03.964Z,20.50
2023-05-21T06:10:03.826Z,25.80
2023-05-21T06:11:03.491Z,25.80
2023-05-21T06:12:03.544Z,25.80
2023-05-21T06:13:03.603Z,25.80
2023-05-21T06:14:03.021Z,25.80
2023-05-21T06:15:03.484Z,21.50
2023-05-21T06:16:03.324Z,21.50
2023-05-21T06:17:03.467Z,21.50
2023-05-21T06:18:03.220Z,21.50
2023-05-21T06:19:03.184Z,21.50
2023-05-21T06:20:02.564Z,22.20
2023-05-21T06:21:02.738Z,22.20
2023-05-21T06:22:03.035Z,22.20
2023-05-21T06:23:02.590Z,22.20
2023-05-21T06:24:02.930Z,22.20
2023-05-21T06:25:02.994Z,19.60
2023-05-21T06:26:02.626Z,19.60
2023-05-21T06:27:02.972Z,19.60
2023-05-21T06:28:02.665Z,19.60
2023-05-21T06:29:03.036Z,19.60
2023-05-21T06:30:03.321Z,21.20
2023-05-21T06:31:03.342Z,21.20
2023-05-21T06:32:02.841Z,21.20
2023-05-21T06:33:03.258Z,21.20
2023-05-21T06:34:03.747Z,21.20
2023-05-21T06:35:03.161Z,21.60
2023-05-21T06:36:03.422Z,21.60
2023-05-21T06:37:03.238Z,21.60
2023-05-21T06:38:02.610Z,21.60
2023-05-21T06:39:02.978Z,21.60
2023-05-21T06:40:02.625Z,24.20
2023-05-21T06:41:02.799Z,24.20
2023-05-21T06:42:02.812Z,24.20
2023-05-21T06:43:03.117Z,24.20
2023-05-21T06:44:03.108Z,24.20
2023-05-21T06:45:03.591Z,20.50
2023-05-21T06:46:03.647Z,20.50
2023-05-21T06:47:03.101Z,20.50
2023-05-21T06:48:03.639Z,20.50
2023-05-21T06:49:03.654Z,20.50
2023-05-21T06:50:03.890Z,21.50
2023-05-21T06:51:03.592Z,21.50
2023-05-21T06:52:03.945Z,21.50
2023-05-21T06:53:02.925Z,21.50
2023-05-21T06:54:03.277Z,21.50
2023-05-21T06:55:02.959Z,24.30
2023-05-21T06:56:03.594Z,24.30
2023-05-21T06:57:03.020Z,24.30
2023-05-21T06:58:02.933Z,24.30
2023-05-21T06:59:03.053Z,24.30
2023-05-21T07:00:03.441Z,22.10
2023-05-21T07:01:03.157Z,22.10
2023-05-21T07:02:04.677Z,22.10
2023-05-21T07:03:02.784Z,22.10
2023-05-21T07:04:03.086Z,22.10
2023-05-21T07:05:02.871Z,20.10
2023-05-21T07:06:02.770Z,20.10
2023-05-21T07:07:02.536Z,20.10
2023-05-21T07:08:02.978Z,20.10
2023-05-21T07:09:03.234Z,20.10
2023-05-21T07:10:03.488Z,20.60
2023-05-21T07:11:03.115Z,20.60
2023-05-21T07:12:03.320Z,20.60
2023-05-21T07:13:02.639Z,20.60
2023-05-21T07:14:02.842Z,20.60
2023-05-21T07:15:02.507Z,20.80
2023-05-21T07:16:02.555Z,20.80
2023-05-21T07:17:02.700Z,20.80
2023-05-21T07:18:03.161Z,20.80
2023-05-21T07:19:03.260Z,20.80
2023-05-21T07:20:03.286Z,19.70
2023-05-21T07:21:02.971Z,19.70
2023-05-21T07:22:03.277Z,19.70
2023-05-21T07:23:02.667Z,19.70
2023-05-21T07:24:02.530Z,19.70
2023-05-21T07:25:03.039Z,22.40
2023-05-21T07:26:02.775Z,22.40
2023-05-21T07:27:06.496Z,22.40
2023-05-21T07:28:04.005Z,22.40
2023-05-21T07:29:03.317Z,22.40
2023-05-21T07:30:03.292Z,20.20
2023-05-21T07:31:03.182Z,20.20
2023-05-21T07:32:03.706Z,20.20
2023-05-21T07:33:03.471Z,20.20
2023-05-21T07:34:03.368Z,20.20
2023-05-21T07:35:03.664Z,19.30
2023-05-21T07:36:03.883Z,19.30
2023-05-21T07:37:03.533Z,19.30
2023-05-21T07:38:03.198Z,19.30
2023-05-21T07:39:03.420Z,19.30
2023-05-21T07:40:03.467Z,20.90
2023-05-21T07:41:03.259Z,20.90
2023-05-21T07:42:03.638Z,20.90
2023-05-21T07:43:02.761Z,20.90
2023-05-21T07:44:03.121Z,20.90
2023-05-21T07:45:02.561Z,18.40
2023-05-21T07:46:02.939Z,18.40
2023-05-21T07:47:02.575Z,18.40
2023-05-21T07:48:03.226Z,18.40
2023-05-21T07:49:02.756Z,18.40
2023-05-21T07:50:02.982Z,21.50
2023-05-21T07:51:03.303Z,21.50
2023-05-21T07:52:02.933Z,21.50
2023-05-21T07:53:03.388Z,21.50
2023-05-21T07:54:03.457Z,21.50
2023-05-21T07:55:02.816Z,19.60
2023-05-21T07:56:03.409Z,19.60
2023-05-21T07:57:03.045Z,19.60
2023-05-21T07:58:03.235Z,19.60
2023-05-21T07:59:02.900Z,19.60
2023-05-21T08:00:03.138Z,16.80
2023-05-21T08:01:03.453Z,16.80
2023-05-21T08:02:03.406Z,16.80
2023-05-21T08:03:02.960Z,16.80
2023-05-21T08:04:03.205Z,16.80
2023-05-21T08:05:02.558Z,18.50
2023-05-21T08:06:02.941Z,18.50
2023-05-21T08:07:02.907Z,18.50
2023-05-21T08:08:03.109Z,18.50
2023-05-21T08:09:02.927Z,18.50
2023-05-21T08:10:03.249Z,17.40
2023-05-21T08:11:03.379Z,17.40
2023-05-21T08:12:03.307Z,17.40
2023-05-21T08:13:02.972Z,17.40
2023-05-21T08:14:02.664Z,17.40
2023-05-21T08:15:02.332Z,18.30
2023-05-21T08:16:02.774Z,18.30
2023-05-21T08:17:02.524Z,18.30
2023-05-21T08:18:03.070Z,18.30
2023-05-21T08:19:02.738Z,18.30
2023-05-21T08:20:03.087Z,17.20
2023-05-21T08:21:02.937Z,17.20
2023-05-21T08:22:03.102Z,17.20
2023-05-21T08:23:02.758Z,17.20
2023-05-21T08:24:02.710Z,17.20
2023-05-21T08:25:02.280Z,16.10
2023-05-21T08:26:02.416Z,16.10
2023-05-21T08:27:02.617Z,16.10
2023-05-21T08:28:02.991Z,16.10
2023-05-21T08:29:03.167Z,16.10
2023-05-21T08:30:02.762Z,18.90
2023-05-21T08:31:03.062Z,18.90
2023-05-21T08:32:03.164Z,18.90
2023-05-21T08:33:03.201Z,18.90
2023-05-21T08:34:03.198Z,18.90
2023-05-21T08:35:03.202Z,18.70
2023-05-21T08:36:02.872Z,18.70
2023-05-21T08:37:03.009Z,18.70
2023-05-21T08:38:03.560Z,18.70
2023-05-21T08:39:03.366Z,18.70
2023-05-21T08:40:03.507Z,18.90
2023-05-21T08:41:03.211Z,18.90
2023-05-21T08:42:03.033Z,18.90
2023-05-21T08:43:03.121Z,18.90
2023-05-21T08:44:03.138Z,18.90
2023-05-21T08:45:02.655Z,19.10
2023-05-21T08:46:02.734Z,19.10
2023-05-21T08:47:02.938Z,19.10
2023-05-21T08:48:03.467Z,19.10
2023-05-21T08:49:03.115Z,19.10
2023-05-21T08:50:03.128Z,15.10
2023-05-21T08:51:03.306Z,15.10
2023-05-21T08:52:03.228Z,15.10
2023-05-21T08:53:07.532Z,15.10
2023-05-21T08:54:02.999Z,15.10
2023-05-21T08:55:03.457Z,18.40
2023-05-21T08:56:03.162Z,18.40
2023-05-21T08:57:03.481Z,18.40
2023-05-21T08:58:03.576Z,18.40
2023-05-21T08:59:03.262Z,18.40
2023-05-21T09:00:03.412Z,17.40
2023-05-21T09:01:03.500Z,17.40
2023-05-21T09:02:03.709Z,17.40
2023-05-21T09:03:02.988Z,17.40
2023-05-21T09:04:18.830Z,17.40
2023-05-21T09:05:02.954Z,16.60
2023-05-21T09:06:02.890Z,16.60
2023-05-21T09:07:02.328Z,16.60
2023-05-21T09:08:03.476Z,16.60
2023-05-21T09:09:03.436Z,16.60
2023-05-21T09:10:03.528Z,18.10
2023-05-21T09:11:03.447Z,18.10
2023-05-21T09:12:02.988Z,18.10
2023-05-21T09:13:03.635Z,18.10
2023-05-21T09:14:03.390Z,18.10
2023-05-21T09:15:03.600Z,15.40
2023-05-21T09:16:03.649Z,15.40
2023-05-21T09:17:03.224Z,15.40
2023-05-21T09:18:02.973Z,15.40
2023-05-21T09:19:04.474Z,15.40
2023-05-21T09:20:02.710Z,18.00
2023-05-21T09:21:02.823Z,18.00
2023-05-21T09:22:02.518Z,18.00
2023-05-21T09:23:02.978Z,18.00
2023-05-21T09:24:02.523Z,18.00
2023-05-21T09:25:02.561Z,18.70
2023-05-21T09:26:02.524Z,18.70
2023-05-21T09:27:02.812Z,18.70
2023-05-21T09:28:03.542Z,18.70
2023-05-21T09:29:03.329Z,18.70
2023-05-21T09:30:03.226Z,17.40
2023-05-21T09:31:03.552Z,17.40
2023-05-21T09:32:02.941Z,17.40
2023-05-21T09:33:02.336Z,17.40
2023-05-21T09:34:02.658Z,17.40
2023-05-21T09:35:02.362Z,18.70
2023-05-21T09:36:02.462Z,18.70
2023-05-21T09:37:03.688Z,18.70
2023-05-21T09:38:02.851Z,18.70
2023-05-21T09:39:03.493Z,18.70
2023-05-21T09:40:03.374Z,16.10
2023-05-21T09:41:03.132Z,16.10
2023-05-21T09:42:03.502Z,16.10
2023-05-21T09:43:03.455Z,16.10
2023-05-21T09:44:02.517Z,16.10
2023-05-21T09:45:03.104Z,15.70
2023-05-21T09:46:03.161Z,15.70
2023-05-21T09:47:02.991Z,15.70
2023-05-21T09:48:02.975Z,15.70
2023-05-21T09:49:03.341Z,15.70
2023-05-21T09:50:03.493Z,15.20
2023-05-21T09:51:03.711Z,15.20
2023-05-21T09:52:03.711Z,15.20
2023-05-21T09:53:03.805Z,15.20
2023-05-21T09:54:03.024Z,15.20
2023-05-21T09:55:03.117Z,19.90
2023-05-21T09:56:03.331Z,19.90
2023-05-21T09:57:03.264Z,19.90
2023-05-21T09:58:03.656Z,19.90
2023-05-21T09:59:03.217Z,19.90
2023-05-21T10:00:03.327Z,15.20
2023-05-21T10:01:03.103Z,15.20
2023-05-21T10:02:03.690Z,15.20
2023-05-21T10:03:03.226Z,15.20
2023-05-21T10:04:02.984Z,15.20
2023-05-21T10:05:03.263Z,16.80
2023-05-21T10:06:03.194Z,16.80
2023-05-21T10:07:02.777Z,16.80
2023-05-21T10:08:02.732Z,16.80
2023-05-21T10:09:05.591Z,16.80
2023-05-21T10:10:03.324Z,14.90
2023-05-21T10:11:03.449Z,14.90
2023-05-21T10:12:03.705Z,14.90
2023-05-21T10:13:03.073Z,14.90
2023-05-21T10:14:02.964Z,14.90
2023-05-21T10:15:02.598Z,15.50
2023-05-21T10:16:03.019Z,15.50
2023-05-21T10:17:02.653Z,15.50
2023-05-21T10:18:02.660Z,15.50
2023-05-21T10:19:03.418Z,15.50
2023-05-21T10:20:03.115Z,15.60
2023-05-21T10:21:03.054Z,15.60
2023-05-21T10:22:03.329Z,15.60
2023-05-21T10:23:02.928Z,15.60
2023-05-21T10:24:02.235Z,15.60
2023-05-21T10:25:02.537Z,15.90
2023-05-21T10:26:02.716Z,15.90
2023-05-21T10:27:02.870Z,15.90
2023-05-21T10:28:02.678Z,15.90
2023-05-21T10:29:02.944Z,15.90
2023-05-21T10:30:03.195Z,16.70
2023-05-21T10:31:02.935Z,16.70
2023-05-21T10:32:02.988Z,16.70
2023-05-21T10:33:03.274Z,16.70
2023-05-21T10:34:03.227Z,16.70
2023-05-21T10:35:02.747Z,15.50
2023-05-21T10:36:03.036Z,15.50
2023-05-21T10:37:03.090Z,15.50
2023-05-21T10:38:03.306Z,15.50
2023-05-21T10:39:03.829Z,15.50
2023-05-21T10:40:03.791Z,15.40
2023-05-21T10:41:03.433Z,15.40
2023-05-21T10:42:03.359Z,15.40
2023-05-21T10:43:03.594Z,15.40
2023-05-21T10:44:02.853Z,15.40
2023-05-21T10:45:03.007Z,14.70
2023-05-21T10:46:02.914Z,14.70
2023-05-21T10:47:03.314Z,14.70
2023-05-21T10:48:03.540Z,14.70
2023-05-21T10:49:02.911Z,14.70
2023-05-21T10:50:03.068Z,18.20
2023-05-21T10:51:02.543Z,18.20
2023-05-21T10:52:02.890Z,18.20
2023-05-21T10:53:03.043Z,18.20
2023-05-21T10:54:03.268Z,18.20
2023-05-21T10:55:03.770Z,15.10
2023-05-21T10:56:03.806Z,15.10
2023-05-21T10:57:03.566Z,15.10
2023-05-21T10:58:03.859Z,15.10
2023-05-21T10:59:02.777Z,15.10
2023-05-21T11:00:02.895Z,17.50
2023-05-21T11:01:03.147Z,17.50
2023-05-21T11:02:02.867Z,17.50
2023-05-21T11:03:03.007Z,17.50
2023-05-21T11:04:02.362Z,17.50
2023-05-21T11:05:02.307Z,13.30
2023-05-21T11:06:02.783Z,13.30
2023-05-21T11:07:02.490Z,13.30
2023-05-21T11:08:02.201Z,13.30
2023-05-21T11:09:02.814Z,13.30
2023-05-21T11:10:02.190Z,14.30
2023-05-21T11:11:02.272Z,14.30
2023-05-21T11:12:02.638Z,14.30
2023-05-21T11:13:02.528Z,14.30
2023-05-21T11:14:02.838Z,14.30
2023-05-21T11:15:03.188Z,17.30
2023-05-21T11:16:02.626Z,17.30
2023-05-21T11:17:02.874Z,17.30
2023-05-21T11:18:02.715Z,17.30
2023-05-21T11:19:03.400Z,17.30
2023-05-21T11:20:03.233Z,13.90
2023-05-21T11:21:03.235Z,13.90
2023-05-21T11:22:02.853Z,13.90
2023-05-21T11:23:02.621Z,13.90
2023-05-21T11:24:03.011Z,13.90
2023-05-21T11:25:03.300Z,13.60
2023-05-21T11:26:03.321Z,13.60
2023-05-21T11:27:02.781Z,13.60
2023-05-21T11:28:02.965Z,13.60
2023-05-21T11:29:02.548Z,13.60
2023-05-21T11:30:02.215Z,14.70
2023-05-21T11:31:02.381Z,14.70
2023-05-21T11:32:02.331Z,14.70
2023-05-21T11:33:02.566Z,14.70
2023-05-21T11:34:03.029Z,14.70
2023-05-21T11:35:02.767Z,13.30
2023-05-21T11:36:03.162Z,13.30
2023-05-21T11:37:02.801Z,13.30
2023-05-21T11:38:03.013Z,13.30
2023-05-21T11:39:02.600Z,13.30
2023-05-21T11:40:02.802Z,15.00
2023-05-21T11:41:02.783Z,15.00
2023-05-21T11:42:04.326Z,15.00
2023-05-21T11:43:02.774Z,15.00
2023-05-21T11:44:03.071Z,15.00
2023-05-21T11:45:02.707Z,15.80
2023-05-21T11:46:03.070Z,15.80
2023-05-21T11:47:02.797Z,15.80
2023-05-21T11:48:03.174Z,15.80
2023-05-21T11:49:03.100Z,15.80
2023-05-21T11:50:03.381Z,13.70
2023-05-21T11:51:02.734Z,13.70
2023-05-21T11:52:03.140Z,13.70
2023-05-21T11:53:02.806Z,13.70
2023-05-21T11:54:02.724Z,13.70
2023-05-21T11:55:02.849Z,16.20
2023-05-21T11:56:03.064Z,16.20
2023-05-21T11:57:03.007Z,16.20
2023-05-21T11:58:02.440Z,16.20
2023-05-21T11:59:03.639Z,16.20
2023-05-21T12:00:03.301Z,14.90
2023-05-21T12:01:03.038Z,14.90
2023-05-21T12:02:03.327Z,14.90
2023-05-21T12:03:03.289Z,14.90
2023-05-21T12:04:02.683Z,14.90
2023-05-21T12:05:02.921Z,12.90
2023-05-21T12:06:02.339Z,12.90
2023-05-21T12:07:02.425Z,12.90
2023-05-21T12:08:02.780Z,12.90
2023-05-21T12:09:02.968Z,12.90
2023-05-21T12:10:02.862Z,12.40
2023-05-21T12:11:03.092Z,12.40
2023-05-21T12:12:02.679Z,12.40
2023-05-21T12:13:02.994Z,12.40
2023-05-21T12:14:03.400Z,12.40
2023-05-21T12:15:02.838Z,12.80
2023-05-21T12:16:05.831Z,12.80
2023-05-21T12:17:03.072Z,12.80
2023-05-21T12:18:03.449Z,12.80
2023-05-21T12:19:02.886Z,12.80
2023-05-21T12:20:02.537Z,14.60
2023-05-21T12:21:02.874Z,14.60
2023-05-21T12:22:02.736Z,14.60
2023-05-21T12:23:02.887Z,14.60
2023-05-21T12:24:03.083Z,14.60
2023-05-21T12:25:03.070Z,15.10
2023-05-21T12:26:03.309Z,15.10
2023-05-21T12:27:03.153Z,15.10
2023-05-21T12:28:02.825Z,15.10
2023-05-21T12:29:03.686Z,15.10
2023-05-21T12:30:03.791Z,15.00
2023-05-21T12:31:03.563Z,15.00
2023-05-21T12:32:03.583Z,15.00
2023-05-21T12:33:04.000Z,15.00
2023-05-21T12:34:02.934Z,15.00
2023-05-21T12:35:03.238Z,14.00
2023-05-21T12:36:03.064Z,14.00
2023-05-21T12:37:02.699Z,14.00
2023-05-21T12:38:03.077Z,14.00
2023-05-21T12:39:03.344Z,14.00
2023-05-21T12:40:03.318Z,14.10
2023-05-21T12:41:03.568Z,14.10
2023-05-21T12:42:03.159Z,14.10
2023-05-21T12:43:02.793Z,14.10
2023-05-21T12:44:03.781Z,14.10
2023-05-21T12:45:03.853Z,13.60
2023-05-21T12:46:03.870Z,13.60
2023-05-21T12:47:03.529Z,13.60
2023-05-21T12:48:03.948Z,13.60
2023-05-21T12:49:03.159Z,13.60
2023-05-21T12:50:02.524Z,16.00
2023-05-21T12:51:02.772Z,16.00
2023-05-21T12:52:02.903Z,16.00